createdAt,value
2022-10-29T00:00:55.695Z,29.80
2022-10-29T00:03:25.192Z,27.63
2022-10-29T00:06:01.751Z,31.00
2022-10-29T00:08:31.177Z,27.95
2022-10-29T00:11:08.252Z,28.83
2022-10-29T00:13:36.718Z,27.27
2022-10-29T00:16:09.497Z,25.55
2022-10-29T00:18:37.656Z,20.45
2022-10-29T00:21:07.625Z,25.27
2022-10-29T00:23:36.152Z,25.17
2022-10-29T00:26:05.414Z,18.15
2022-10-29T00:28:35.315Z,21.05
2022-10-29T00:31:04.657Z,16.73
2022-10-29T00:33:32.794Z,14.48
2022-10-29T00:36:02.473Z,19.77
2022-10-29T00:38:34.801Z,18.40
2022-10-29T00:41:04.307Z,18.98
2022-10-29T00:43:38.424Z,20.40
2022-10-29T00:46:09.901Z,16.15
2022-10-29T00:48:43.937Z,17.08
2022-10-29T00:51:14.265Z,20.70
2022-10-29T00:53:45.717Z,17.25
2022-10-29T00:56:14.995Z,19.88
2022-10-29T00:58:45.330Z,14.63
2022-10-29T01:01:13.825Z,15.55
2022-10-29T01:03:42.047Z,12.23
2022-10-29T01:06:10.354Z,15.00
2022-10-29T01:08:38.765Z,21.45
2022-10-29T01:11:17.196Z,15.95
2022-10-29T01:14:02.643Z,12.60
2022-10-29T01:16:39.304Z,16.95
2022-10-29T01:19:14.886Z,18.88
2022-10-29T01:21:46.283Z,11.45
2022-10-29T01:25:00.084Z,20.23
2022-10-29T01:27:47.820Z,13.90
2022-10-29T01:30:24.646Z,15.90
2022-10-29T01:33:08.705Z,15.82
2022-10-29T01:35:46.303Z,19.00
2022-10-29T01:38:25.737Z,12.45
2022-10-29T01:41:01.165Z,18.42
2022-10-29T01:43:34.622Z,20.75
2022-10-29T01:46:09.335Z,15.30
2022-10-29T01:48:43.527Z,14.88
2022-10-29T01:53:42.963Z,19.23
2022-10-29T01:56:11.019Z,16.08
2022-10-29T01:58:42.212Z,18.35
2022-10-29T02:01:24.231Z,12.75
2022-10-29T02:04:02.330Z,17.58
2022-10-29T02:06:40.288Z,17.10
2022-10-29T02:09:16.925Z,15.57
2022-10-29T02:11:49.787Z,17.10
2022-10-29T02:14:23.456Z,13.70
2022-10-29T02:16:52.208Z,16.02
2022-10-29T02:19:21.637Z,13.20
2022-10-29T02:21:52.103Z,12.75
2022-10-29T02:24:20.230Z,16.20
2022-10-29T02:26:48.235Z,17.48
2022-10-29T02:29:16.299Z,16.02
2022-10-29T02:31:44.527Z,22.00
2022-10-29T02:34:12.720Z,18.33
2022-10-29T02:36:42.114Z,16.27
2022-10-29T02:39:10.188Z,14.18
2022-10-29T02:41:38.162Z,16.60
2022-10-29T02:44:06.241Z,15.80
2022-10-29T02:46:36.235Z,16.02
2022-10-29T02:49:04.317Z,20.15
2022-10-29T02:51:32.441Z,21.08
2022-10-29T02:54:01.954Z,28.13
2022-10-29T02:56:30.029Z,31.50
2022-10-29T02:58:58.261Z,19.58
2022-10-29T03:01:26.513Z,29.85
2022-10-29T03:03:54.668Z,19.45
2022-10-29T03:06:22.878Z,18.17
2022-10-29T03:08:50.894Z,18.23
2022-10-29T03:11:20.334Z,17.92
2022-10-29T03:13:48.528Z,17.67
2022-10-29T03:16:16.842Z,15.32
2022-10-29T03:18:44.912Z,21.70
2022-10-29T03:21:13.006Z,14.70
2022-10-29T03:23:40.962Z,16.25
2022-10-29T03:26:10.694Z,18.67
2022-10-29T03:28:40.263Z,16.52
2022-10-29T03:31:08.305Z,16.25
2022-10-29T03:33:37.123Z,16.90
2022-10-29T03:36:07.586Z,19.83
2022-10-29T03:38:36.215Z,12.75
2022-10-29T03:41:08.665Z,23.50
2022-10-29T03:43:36.929Z,16.98
2022-10-29T03:46:06.886Z,25.33
2022-10-29T03:48:35.145Z,14.55
2022-10-29T03:51:06.365Z,26.88
2022-10-29T03:53:35.861Z,20.58
2022-10-29T03:56:04.810Z,24.10
2022-10-29T03:58:33.358Z,20.40
2022-10-29T04:01:03.300Z,16.55
2022-10-29T04:03:34.440Z,17.15
2022-10-29T04:06:04.154Z,16.08
2022-10-29T04:08:32.228Z,14.93
2022-10-29T04:11:00.314Z,13.27
2022-10-29T04:13:28.707Z,14.98
2022-10-29T04:15:57.465Z,12.90
2022-10-29T04:18:25.894Z,31.02
2022-10-29T04:28:18.150Z,20.95
2022-10-29T04:29:20.342Z,17.55
2022-10-29T04:31:48.561Z,15.52
2022-10-29T04:34:16.821Z,18.83
2022-10-29T04:36:46.932Z,19.83
2022-10-29T04:39:18.281Z,18.85
2022-10-29T04:41:49.889Z,18.40
2022-10-29T04:44:18.084Z,17.75
2022-10-29T04:46:46.220Z,14.98
2022-10-29T04:49:14.640Z,17.42
2022-10-29T04:51:42.930Z,27.30
2022-10-29T04:54:12.504Z,26.25
2022-10-29T04:56:40.667Z,20.38
2022-10-29T04:59:08.642Z,20.52
2022-10-29T05:01:37.190Z,17.42
2022-10-29T05:04:05.766Z,18.15
2022-10-29T05:06:33.786Z,18.50
2022-10-29T05:09:02.144Z,16.70
2022-10-29T05:11:31.530Z,14.82
2022-10-29T05:13:59.571Z,21.00
2022-10-29T05:16:27.821Z,18.67
2022-10-29T05:18:55.975Z,15.07
2022-10-29T05:21:24.347Z,18.45
2022-10-29T05:23:52.416Z,22.33
2022-10-29T05:26:20.577Z,22.60
2022-10-29T05:28:52.163Z,21.70
2022-10-29T05:31:20.275Z,18.85
2022-10-29T05:33:50.034Z,22.13
2022-10-29T05:36:20.803Z,21.25
2022-10-29T05:38:48.796Z,17.33
2022-10-29T05:41:16.977Z,20.00
2022-10-29T05:43:45.049Z,17.88
2022-10-29T05:46:14.409Z,21.58
2022-10-29T05:48:42.784Z,24.27
2022-10-29T05:51:10.823Z,17.52
2022-10-29T05:53:38.990Z,18.52
2022-10-29T05:56:08.119Z,25.45
2022-10-29T05:58:36.309Z,26.55
2022-10-29T06:01:07.835Z,26.52
2022-10-29T06:03:38.283Z,32.17
2022-10-29T06:06:06.569Z,23.08
2022-10-29T06:08:34.715Z,20.92
2022-10-29T06:11:03.829Z,31.27
2022-10-29T06:13:32.143Z,30.58
2022-10-29T06:16:01.251Z,36.28
2022-10-29T06:18:29.367Z,36.55
2022-10-29T06:21:00.854Z,28.98
2022-10-29T06:23:29.508Z,36.80
2022-10-29T06:26:00.524Z,34.35
2022-10-29T06:28:33.767Z,38.67
2022-10-29T06:31:03.225Z,25.23
2022-10-29T06:33:31.311Z,29.73
2022-10-29T06:36:01.384Z,23.85
2022-10-29T06:38:29.522Z,33.47
2022-10-29T06:40:57.577Z,32.45
2022-10-29T06:43:25.729Z,21.55
2022-10-29T06:45:53.890Z,22.30
2022-10-29T06:48:22.822Z,32.33
2022-10-29T06:50:51.133Z,33.10
2022-10-29T06:53:21.427Z,38.90
2022-10-29T06:55:49.692Z,34.72
2022-10-29T06:58:20.667Z,34.45
2022-10-29T07:00:49.592Z,25.65
2022-10-29T07:03:18.881Z,29.60
2022-10-29T07:05:48.406Z,24.65
2022-10-29T07:08:16.580Z,23.77
2022-10-29T07:10:45.920Z,26.92
2022-10-29T07:13:14.040Z,33.33
2022-10-29T07:15:42.089Z,33.25
2022-10-29T07:18:11.556Z,48.08
2022-10-29T07:20:41.590Z,35.47
2022-10-29T07:23:10.568Z,26.48
2022-10-29T07:25:39.750Z,30.02
2022-10-29T07:28:11.763Z,28.45
2022-10-29T07:30:40.565Z,23.52
2022-10-29T07:33:08.744Z,23.63
2022-10-29T07:35:37.069Z,21.55
2022-10-29T07:38:10.904Z,17.48
2022-10-29T07:43:10.382Z,16.40
2022-10-29T07:45:38.501Z,14.95
2022-10-29T07:48:08.474Z,18.60
2022-10-29T07:50:37.407Z,22.85
2022-10-29T07:53:06.605Z,31.30
2022-10-29T07:55:35.068Z,18.67
2022-10-29T07:58:04.887Z,17.05
2022-10-29T08:00:36.210Z,17.10
2022-10-29T08:03:04.738Z,18.63
2022-10-29T08:05:33.709Z,14.18
2022-10-29T08:08:01.890Z,14.50
2022-10-29T08:10:31.223Z,13.63
2022-10-29T08:13:01.665Z,17.77
2022-10-29T08:15:32.046Z,14.27
2022-10-29T08:18:02.123Z,17.55
2022-10-29T08:20:31.060Z,12.38
2022-10-29T08:23:01.653Z,13.80
2022-10-29T08:25:30.523Z,14.05
2022-10-29T08:28:04.361Z,11.20
2022-10-29T08:30:33.207Z,11.20
2022-10-29T08:33:02.723Z,11.95
2022-10-29T08:35:31.218Z,8.95
2022-10-29T08:37:59.904Z,16.73
2022-10-29T08:40:39.012Z,8.98
2022-10-29T08:43:47.371Z,12.70
2022-10-29T08:46:21.936Z,13.05
2022-10-29T08:51:25.433Z,17.08
2022-10-29T08:54:25.056Z,14.73
2022-10-29T08:56:48.813Z,13.38
2022-10-29T08:59:19.226Z,11.32
2022-10-29T09:01:47.533Z,18.48
2022-10-29T09:04:24.561Z,21.00
2022-10-29T09:07:22.165Z,15.68
2022-10-29T09:09:57.738Z,11.85
2022-10-29T09:12:46.617Z,15.32
2022-10-29T09:15:40.908Z,14.50
2022-10-29T09:18:30.555Z,16.88
2022-10-29T09:21:09.216Z,10.43
2022-10-29T09:23:53.771Z,14.82
2022-10-29T09:29:05.435Z,14.23
2022-10-29T09:31:40.925Z,22.23
2022-10-29T09:34:18.027Z,16.85
2022-10-29T09:36:48.627Z,15.63
2022-10-29T09:39:24.670Z,13.77
2022-10-29T09:41:54.816Z,16.60
2022-10-29T09:44:25.914Z,16.13
2022-10-29T09:47:09.729Z,17.85
2022-10-29T09:49:52.913Z,18.33
2022-10-29T09:52:25.081Z,14.88
2022-10-29T09:54:55.417Z,19.55
2022-10-29T09:57:25.951Z,18.42
2022-10-29T09:59:57.893Z,19.50
2022-10-29T10:02:34.793Z,16.40
2022-10-29T10:05:06.564Z,15.02
2022-10-29T10:07:36.275Z,17.67
2022-10-29T10:10:06.345Z,15.35
2022-10-29T10:12:47.162Z,17.33
2022-10-29T10:15:26.417Z,16.92
2022-10-29T10:17:56.922Z,13.25
2022-10-29T10:20:37.579Z,13.15
2022-10-29T10:23:22.571Z,14.30
2022-10-29T10:25:51.974Z,8.60
2022-10-29T10:28:21.980Z,10.35
2022-10-29T10:31:09.379Z,11.15
2022-10-29T10:33:44.638Z,12.90
2022-10-29T10:36:12.710Z,11.65
2022-10-29T10:38:45.130Z,9.07
2022-10-29T10:41:14.675Z,8.95
2022-10-29T10:43:44.974Z,10.80
2022-10-29T10:46:18.640Z,10.52
2022-10-29T10:48:57.293Z,14.10
2022-10-29T10:51:29.005Z,7.80
2022-10-29T10:53:58.886Z,6.75
2022-10-29T10:56:26.940Z,8.52
2022-10-29T10:59:03.048Z,8.30
2022-10-29T11:01:35.849Z,15.70
2022-10-29T11:04:14.742Z,9.93
2022-10-29T11:06:47.616Z,13.38
2022-10-29T11:09:23.720Z,13.68
2022-10-29T11:11:59.026Z,12.15
2022-10-29T11:14:32.699Z,11.35
2022-10-29T11:17:03.907Z,11.13
2022-10-29T11:19:39.480Z,11.98
2022-10-29T11:22:13.859Z,14.50
2022-10-29T11:24:48.740Z,12.73
2022-10-29T11:27:26.455Z,6.90
2022-10-29T11:30:03.724Z,20.05
2022-10-29T11:32:41.655Z,11.45
2022-10-29T11:35:13.305Z,18.65
2022-10-29T11:37:48.688Z,17.58
2022-10-29T11:40:22.758Z,16.50
2022-10-29T11:42:51.065Z,16.20
2022-10-29T11:45:30.918Z,14.73
2022-10-29T11:48:21.635Z,16.08
2022-10-29T11:50:58.103Z,18.88
2022-10-29T11:53:38.603Z,11.52
2022-10-29T11:56:15.030Z,16.65
2022-10-29T11:58:53.184Z,17.23
2022-10-29T12:01:32.383Z,17.25
2022-10-29T12:04:23.963Z,14.43
2022-10-29T12:07:13.519Z,15.63
2022-10-29T12:10:12.549Z,17.10
2022-10-29T12:12:48.393Z,15.93
2022-10-29T12:15:25.539Z,13.63
2022-10-29T12:18:05.641Z,14.25
2022-10-29T12:20:42.120Z,19.95
2022-10-29T12:23:23.170Z,15.25
2022-10-29T12:26:00.085Z,14.20
2022-10-29T12:28:39.035Z,15.85
2022-10-29T12:31:19.142Z,19.70
2022-10-29T12:33:52.813Z,20.35
2022-10-29T12:36:31.347Z,17.70
2022-10-29T12:39:02.164Z,13.73
2022-10-29T12:41:37.100Z,12.00
2022-10-29T12:44:14.955Z,12.85
2022-10-29T12:46:48.151Z,14.68
2022-10-29T12:49:24.325Z,17.93
2022-10-29T12:54:32.723Z,12.70
2022-10-29T12:57:30.102Z,11.90
2022-10-29T13:00:46.330Z,14.93
2022-10-29T13:03:44.279Z,15.48
2022-10-29T13:06:49.667Z,20.35
2022-10-29T13:09:20.293Z,19.02
2022-10-29T13:11:50.599Z,19.15
2022-10-29T13:14:24.939Z,20.75
2022-10-29T13:16:56.351Z,18.48
2022-10-29T13:19:37.392Z,16.67
2022-10-29T13:22:29.393Z,15.98
2022-10-29T13:25:45.559Z,15.50
2022-10-29T13:28:50.692Z,13.93
2022-10-29T13:31:48.817Z,14.48
2022-10-29T13:34:55.609Z,12.80
2022-10-29T13:37:54.812Z,14.68
2022-10-29T13:41:03.186Z,26.50
2022-10-29T13:43:33.111Z,19.48
2022-10-29T13:46:20.366Z,14.05
2022-10-29T13:48:49.731Z,24.55
2022-10-29T13:51:25.890Z,20.30
2022-10-29T13:53:58.638Z,21.70
2022-10-29T13:56:33.343Z,18.40
2022-10-29T13:59:03.131Z,20.55
2022-10-29T14:01:34.512Z,19.00
2022-10-29T14:04:06.560Z,19.73
2022-10-29T14:06:38.715Z,15.95
2022-10-29T14:09:16.105Z,17.48
2022-10-29T14:11:49.443Z,22.20
2022-10-29T14:14:25.953Z,17.37
2022-10-29T14:17:11.067Z,27.42
2022-10-29T14:19:39.083Z,22.05
2022-10-29T14:22:17.894Z,27.95
2022-10-29T14:24:46.303Z,31.25
2022-10-29T14:27:16.039Z,15.43
2022-10-29T14:29:44.149Z,21.42
2022-10-29T14:32:15.639Z,20.27
2022-10-29T14:34:45.419Z,30.08
2022-10-29T14:37:18.295Z,25.20
2022-10-29T14:39:57.952Z,26.17
2022-10-29T14:42:31.443Z,23.52
2022-10-29T14:45:03.295Z,17.80
2022-10-29T14:47:34.922Z,19.67
2022-10-29T14:50:05.816Z,30.27
2022-10-29T14:52:35.696Z,20.17
2022-10-29T14:55:08.935Z,22.33
2022-10-29T14:57:41.661Z,23.33
2022-10-29T15:00:24.301Z,25.30
2022-10-29T15:02:56.002Z,25.25
2022-10-29T15:05:27.002Z,20.67
2022-10-29T15:08:06.230Z,25.42
2022-10-29T15:10:46.079Z,23.83
2022-10-29T15:13:25.310Z,23.42
2022-10-29T15:15:56.548Z,32.20
2022-10-29T15:18:27.494Z,25.75
2022-10-29T15:20:57.287Z,25.98
2022-10-29T15:23:28.516Z,27.90
2022-10-29T15:26:02.244Z,25.70
2022-10-29T15:28:32.094Z,25.90
2022-10-29T15:31:02.793Z,28.98
2022-10-29T15:33:33.234Z,31.65
2022-10-29T15:36:03.451Z,30.63
2022-10-29T15:39:09.642Z,30.58
2022-10-29T15:41:40.402Z,26.45
2022-10-29T15:44:33.673Z,27.30
2022-10-29T15:47:03.464Z,24.73
2022-10-29T15:49:33.117Z,27.30
2022-10-29T15:52:01.904Z,34.20
2022-10-29T15:54:30.430Z,21.15
2022-10-29T15:56:58.486Z,21.33
2022-10-29T15:59:27.510Z,19.67
2022-10-29T16:01:55.625Z,24.67
2022-10-29T16:04:23.902Z,26.30
2022-10-29T16:06:53.271Z,25.10
2022-10-29T16:09:22.078Z,23.80
2022-10-29T16:11:50.811Z,23.88
2022-10-29T16:14:18.968Z,22.02
2022-10-29T16:16:47.132Z,34.25
2022-10-29T16:19:15.101Z,24.05
2022-10-29T16:21:43.065Z,24.38
2022-10-29T16:24:16.002Z,21.95
2022-10-29T16:26:44.064Z,29.05
2022-10-29T16:29:16.024Z,28.88
2022-10-29T16:31:44.462Z,24.25
2022-10-29T16:34:15.165Z,25.35
2022-10-29T16:36:45.329Z,31.45
2022-10-29T16:39:14.837Z,22.58
2022-10-29T16:41:42.873Z,26.42
2022-10-29T16:44:10.879Z,28.17
2022-10-29T16:46:38.919Z,24.33
2022-10-29T16:49:06.937Z,28.58
2022-10-29T16:51:35.031Z,28.95
2022-10-29T16:54:03.173Z,31.88
2022-10-29T16:56:32.629Z,22.63
2022-10-29T16:59:02.039Z,30.08
2022-10-29T17:01:30.397Z,31.80
2022-10-29T17:03:58.812Z,27.88
2022-10-29T17:06:27.092Z,30.30
2022-10-29T17:08:55.113Z,24.30
2022-10-29T17:11:23.212Z,27.60
2022-10-29T17:13:52.590Z,25.58
2022-10-29T17:16:20.708Z,25.52
2022-10-29T17:18:50.760Z,33.03
2022-10-29T17:21:19.243Z,23.80
2022-10-29T17:23:47.275Z,22.50
2022-10-29T17:26:15.310Z,32.33
2022-10-29T17:28:43.328Z,31.23
2022-10-29T17:31:12.765Z,27.73
2022-10-29T17:33:41.144Z,24.60
2022-10-29T17:36:12.684Z,24.20
2022-10-29T17:38:40.681Z,35.67
2022-10-29T17:41:08.798Z,22.20
2022-10-29T17:43:36.787Z,23.52
2022-10-29T17:46:05.308Z,29.98
2022-10-29T17:48:34.848Z,32.67
2022-10-29T17:51:03.845Z,26.30
2022-10-29T17:53:32.789Z,26.13
2022-10-29T17:56:01.376Z,29.88
2022-10-29T17:58:30.996Z,24.40
2022-10-29T18:01:04.823Z,30.30
2022-10-29T18:03:34.662Z,32.88
2022-10-29T18:06:03.781Z,30.25
2022-10-29T18:08:32.298Z,48.92
2022-10-29T18:11:05.185Z,35.80
2022-10-29T18:13:34.946Z,28.50
2022-10-29T18:16:03.465Z,24.58
2022-10-29T18:18:48.077Z,29.98
2022-10-29T18:21:26.172Z,25.45
2022-10-29T18:23:54.214Z,23.77
2022-10-29T18:26:26.066Z,33.22
2022-10-29T18:28:55.763Z,23.88
2022-10-29T18:31:27.314Z,26.08
2022-10-29T18:33:57.005Z,23.73
2022-10-29T18:36:25.360Z,28.77
2022-10-29T18:38:54.591Z,23.80
2022-10-29T18:41:23.053Z,24.98
2022-10-29T18:43:52.031Z,23.02
2022-10-29T18:46:20.528Z,27.23
2022-10-29T18:48:49.515Z,23.10
2022-10-29T18:51:20.868Z,25.05
2022-10-29T18:53:49.022Z,23.02
2022-10-29T18:56:18.495Z,31.25
2022-10-29T18:58:47.235Z,23.80
2022-10-29T19:01:17.896Z,24.92
2022-10-29T19:03:50.704Z,28.02
2022-10-29T19:06:21.936Z,24.35
2022-10-29T19:08:50.427Z,30.70
2022-10-29T19:11:20.449Z,22.40
2022-10-29T19:13:51.744Z,25.45
2022-10-29T19:16:20.504Z,20.83
2022-10-29T19:18:48.946Z,29.38
2022-10-29T19:21:19.209Z,27.27
2022-10-29T19:23:48.872Z,26.85
2022-10-29T19:26:18.885Z,33.33
2022-10-29T19:28:47.960Z,27.60
2022-10-29T19:31:17.554Z,20.30
2022-10-29T19:33:48.635Z,26.67
2022-10-29T19:36:16.876Z,24.70
2022-10-29T19:38:45.377Z,28.13
2022-10-29T19:41:15.393Z,35.67
2022-10-29T19:43:44.047Z,22.23
2022-10-29T19:46:14.054Z,27.70
2022-10-29T19:48:42.838Z,32.33
2022-10-29T19:51:12.151Z,33.92
2022-10-29T19:53:40.409Z,22.70
2022-10-29T19:56:11.578Z,28.95
2022-10-29T19:58:41.337Z,28.20
2022-10-29T20:01:12.971Z,26.52
2022-10-29T20:03:41.279Z,28.77
2022-10-29T20:06:09.650Z,25.85
2022-10-29T20:08:38.272Z,32.88
2022-10-29T20:11:07.027Z,31.05
2022-10-29T20:13:35.303Z,25.98
2022-10-29T20:16:10.165Z,26.85
2022-10-29T20:18:39.090Z,31.70
2022-10-29T20:21:08.180Z,23.95
2022-10-29T20:23:36.572Z,32.40
2022-10-29T20:26:05.528Z,26.30
2022-10-29T20:28:33.785Z,29.98
2022-10-29T20:31:14.452Z,23.77
2022-10-29T20:33:42.576Z,28.45
2022-10-29T20:36:10.774Z,32.17
2022-10-29T20:38:39.044Z,26.25
2022-10-29T20:41:07.138Z,27.42
2022-10-29T20:43:35.277Z,24.42
2022-10-29T20:46:04.056Z,28.00
2022-10-29T20:48:36.270Z,32.42
2022-10-29T20:51:04.873Z,27.70
2022-10-29T20:53:32.997Z,24.27
2022-10-29T20:56:01.140Z,27.38
2022-10-29T20:58:29.396Z,22.73
2022-10-29T21:01:04.744Z,32.08
2022-10-29T21:03:34.187Z,22.67
2022-10-29T21:06:03.556Z,24.98
2022-10-29T21:08:31.934Z,23.42
2022-10-29T21:11:00.844Z,27.45
2022-10-29T21:13:29.704Z,28.50
2022-10-29T21:16:04.589Z,31.67
2022-10-29T21:18:37.919Z,32.10
2022-10-29T21:21:06.728Z,33.20
2022-10-29T21:23:37.093Z,26.35
2022-10-29T21:26:05.506Z,23.05
2022-10-29T21:28:34.152Z,32.00
2022-10-29T21:31:02.276Z,24.98
2022-10-29T21:33:30.345Z,25.67
2022-10-29T21:36:00.281Z,23.75
2022-10-29T21:38:29.323Z,26.27
2022-10-29T21:40:57.333Z,27.67
2022-10-29T21:43:25.592Z,28.30
2022-10-29T21:45:53.711Z,27.02
2022-10-29T21:48:22.333Z,23.40
2022-10-29T21:50:50.348Z,33.08
2022-10-29T21:53:19.708Z,20.35
2022-10-29T21:55:48.013Z,22.60
2022-10-29T21:58:16.023Z,26.23
2022-10-29T22:00:44.120Z,30.13
2022-10-29T22:03:12.073Z,22.75
2022-10-29T22:05:40.216Z,26.20
2022-10-29T22:08:08.218Z,21.85
2022-10-29T22:10:37.587Z,28.13
2022-10-29T22:13:11.959Z,28.55
2022-10-29T22:15:45.321Z,24.08
2022-10-29T22:18:13.542Z,26.90
2022-10-29T22:20:41.534Z,19.40
2022-10-29T22:23:09.697Z,27.02
2022-10-29T22:25:39.303Z,24.73
2022-10-29T22:28:07.480Z,18.33
2022-10-29T22:30:35.727Z,24.90
2022-10-29T22:33:03.714Z,28.98
2022-10-29T22:35:33.448Z,21.23
2022-10-29T22:38:01.671Z,20.88
2022-10-29T22:40:29.591Z,22.60
2022-10-29T22:42:59.321Z,16.80
2022-10-29T22:45:27.649Z,21.55
2022-10-29T22:47:55.665Z,21.42
2022-10-29T22:50:23.823Z,29.80
2022-10-29T22:52:51.847Z,21.48
2022-10-29T22:55:20.136Z,18.83
2022-10-29T22:57:48.128Z,22.83
2022-10-29T23:00:18.039Z,27.42
2022-10-29T23:02:46.276Z,23.08
2022-10-29T23:05:14.367Z,21.13
2022-10-29T23:07:42.387Z,20.42
2022-10-29T23:10:11.038Z,20.92
2022-10-29T23:12:39.297Z,26.67
2022-10-29T23:15:08.675Z,21.35
2022-10-29T23:17:38.108Z,29.33
2022-10-29T23:20:06.612Z,24.23
2022-10-29T23:22:34.808Z,27.73
2022-10-29T23:25:02.912Z,24.23
2022-10-29T23:27:30.889Z,20.25
2022-10-29T23:29:58.978Z,30.80
2022-10-29T23:32:27.046Z,20.45
2022-10-29T23:34:56.580Z,22.67
2022-10-29T23:37:24.590Z,26.10
2022-10-29T23:39:52.678Z,20.25
2022-10-29T23:42:21.036Z,23.40
2022-10-29T23:44:49.046Z,23.48
2022-10-29T23:47:17.236Z,22.88
2022-10-29T23:49:45.264Z,25.15
2022-10-29T23:52:16.464Z,28.02
2022-10-29T23:54:44.563Z,23.85
2022-10-29T23:57:12.722Z,26.02
2022-10-29T23:59:41.601Z,21.88
